Map

Track Data

SID SEASON NUMBER BASIN SUBBASIN NAME ISO_TIME NATURE LAT LON WMO_WIND WMO_PRES WMO_AGENCY TRACK_TYPE DIST2LAND LANDFALL IFLAG USA_AGENCY USA_ATCF_ID USA_LAT USA_LON USA_RECORD USA_STATUS USA_WIND USA_PRES USA_SSHS USA_R34_NE USA_R34_SE USA_R34_SW USA_R34_NW USA_R50_NE USA_R50_SE USA_R50_SW USA_R50_NW USA_R64_NE USA_R64_SE USA_R64_SW USA_R64_NW USA_POCI USA_ROCI USA_RMW USA_EYE TOKYO_LAT TOKYO_LON TOKYO_GRADE TOKYO_WIND TOKYO_PRES TOKYO_R50_DIR TOKYO_R50_LONG TOKYO_R50_SHORT TOKYO_R30_DIR TOKYO_R30_LONG TOKYO_R30_SHORT TOKYO_LAND CMA_LAT CMA_LON CMA_CAT CMA_WIND CMA_PRES HKO_LAT HKO_LON HKO_CAT HKO_WIND HKO_PRES NEWDELHI_LAT NEWDELHI_LON NEWDELHI_GRADE NEWDELHI_WIND NEWDELHI_PRES NEWDELHI_CI NEWDELHI_DP NEWDELHI_POCI REUNION_LAT REUNION_LON REUNION_TYPE REUNION_WIND REUNION_PRES REUNION_TNUM REUNION_CI REUNION_RMW REUNION_R34_NE REUNION_R34_SE REUNION_R34_SW REUNION_R34_NW REUNION_R50_NE REUNION_R50_SE REUNION_R50_SW REUNION_R50_NW REUNION_R64_NE REUNION_R64_SE REUNION_R64_SW REUNION_R64_NW BOM_LAT BOM_LON BOM_TYPE BOM_WIND BOM_PRES BOM_TNUM BOM_CI BOM_RMW BOM_R34_NE BOM_R34_SE BOM_R34_SW BOM_R34_NW BOM_R50_NE BOM_R50_SE BOM_R50_SW BOM_R50_NW BOM_R64_NE BOM_R64_SE BOM_R64_SW BOM_R64_NW BOM_ROCI BOM_POCI BOM_EYE BOM_POS_METHOD BOM_PRES_METHOD NADI_LAT NADI_LON NADI_CAT NADI_WIND NADI_PRES WELLINGTON_LAT WELLINGTON_LON WELLINGTON_WIND WELLINGTON_PRES DS824_LAT DS824_LON DS824_STAGE DS824_WIND DS824_PRES TD9636_LAT TD9636_LON TD9636_STAGE TD9636_WIND TD9636_PRES TD9635_LAT TD9635_LON TD9635_WIND TD9635_PRES TD9635_ROCI NEUMANN_LAT NEUMANN_LON NEUMANN_CLASS NEUMANN_WIND NEUMANN_PRES MLC_LAT MLC_LON MLC_CLASS MLC_WIND MLC_PRES USA_GUST BOM_GUST BOM_GUST_PER REUNION_GUST REUNION_GUST_PER USA_SEAHGT USA_SEARAD_NE USA_SEARAD_SE USA_SEARAD_SW USA_SEARAD_NW STORM_SPEED STORM_DIR
1937046S14158 1937 8 SP EA NOT_NAMED 1937-02-14 23:00:00 NR -14.0000 157.900 main 513 513 __________O___ -1 -14.0000 157.900 7 5 258
1937046S14158 1937 8 SP EA NOT_NAMED 1937-02-15 00:00:00 TS -14.0168 157.815 main 518 518 _________OP___ -1 -14.0000 157.900 TC 35 996 -14.0252 157.773 7 7 263
1937046S14158 1937 8 SP EA NOT_NAMED 1937-02-15 03:00:00 TS -14.0574 157.427 main 547 547 _________PP___ -1 -13.9929 157.478 TC -14.1005 157.393 7 8 264
1937046S14158 1937 8 SP EA NOT_NAMED 1937-02-15 06:00:00 TS -14.0998 157.036 main 569 569 _________PP___ -1 -13.9990 157.064 TC -14.1754 157.015 7 8 264
1937046S14158 1937 8 SP EA NOT_NAMED 1937-02-15 09:00:00 TS -14.1412 156.653 main 587 587 _________PP___ -1 -14.0323 156.663 TC -14.2501 156.643 7 7 262
1937046S14158 1937 8 SP EA NOT_NAMED 1937-02-15 11:00:00 TS -14.1883 156.403 main 616 616 _________PO___ -1 -14.0766 156.406 TC -14.3000 156.400 7 7 258
1937046S14158 1937 8 SP EA NOT_NAMED 1937-02-15 12:00:00 TS -14.2161 156.281 main 622 622 _________PP___ -1 -14.1069 156.282 TC -14.3252 156.280 7 7 253
1937046S14158 1937 8 SP EA NOT_NAMED 1937-02-15 15:00:00 TS -14.3258 155.929 main 658 658 _________PP___ -1 -14.2368 155.929 TC -14.4148 155.929 7 7 247
1937046S14158 1937 8 SP EA NOT_NAMED 1937-02-15 18:00:00 TS -14.4953 155.603 main 688 678 _________PP___ -1 -14.4362 155.610 TC -14.5544 155.596 7 7 235
1937046S14158 1937 8 SP EA NOT_NAMED 1937-02-15 21:00:00 TS -14.7503 155.310 main 685 677 _________PP___ -1 -14.7192 155.332 TC -14.7815 155.288 7 8 223
1937046S14158 1937 8 SP EA NOT_NAMED 1937-02-15 23:00:00 TS -14.9807 155.136 main 685 685 _________PO___ -1 -14.9613 155.172 TC -15.0000 155.100 7 9 215
1937046S14158 1937 8 SP EA NOT_NAMED 1937-02-16 00:00:00 TS -15.1172 155.047 main 686 686 _________OP___ -1 -15.1000 155.100 TC 50 986 -15.1343 154.994 7 11 207
1937046S14158 1937 8 SP EA NOT_NAMED 1937-02-16 03:00:00 TS -15.6052 154.805 main 714 714 _________PP___ -1 -15.5864 154.920 TC -15.6240 154.689 7 12 201
1937046S14158 1937 8 SP EA NOT_NAMED 1937-02-16 06:00:00 TS -16.1859 154.611 main 755 717 _________PP___ -1 -16.1597 154.791 TC -16.2120 154.431 7 13 194
1937046S14158 1937 8 SP EA NOT_NAMED 1937-02-16 09:00:00 TS -16.8261 154.482 main 717 684 _________PP___ -1 -16.7945 154.709 TC -16.8576 154.255 7 13 188
1937046S14158 1937 8 SP EA NOT_NAMED 1937-02-16 11:00:00 TS -17.2697 154.439 main 678 667 _________PO___ -1 -17.2394 154.679 TC -17.3000 154.200 7 14 183
1937046S14158 1937 8 SP EA NOT_NAMED 1937-02-16 12:00:00 TS -17.4953 154.434 main 667 623 _________PP___ -1 -17.4655 154.671 TC -17.5250 154.198 7 14 177
1937046S14158 1937 8 SP EA NOT_NAMED 1937-02-16 15:00:00 TS -18.1857 154.474 main 614 571 _________PP___ -1 -18.1471 154.674 TC -18.2242 154.274 7 14 174
1937046S14158 1937 8 SP EA NOT_NAMED 1937-02-16 18:00:00 TS -18.8650 154.578 main 563 525 _________PP___ -1 -18.8138 154.715 TC -18.9162 154.440 7 13 170
1937046S14158 1937 8 SP EA NOT_NAMED 1937-02-16 21:00:00 TS -19.4922 154.723 main 525 512 _________PP___ -1 -19.4399 154.792 TC -19.5445 154.654 7 12 167
1937046S14158 1937 8 SP EA NOT_NAMED 1937-02-16 23:00:00 TS -19.8611 154.830 main 506 506 _________PO___ -1 -19.8222 154.861 TC -19.9000 154.800 7 11 164
1937046S14158 1937 8 SP EA NOT_NAMED 1937-02-17 00:00:00 TS -20.0216 154.878 main 508 493 _________OP___ -1 -20.0000 154.900 TC 60 980 -20.0431 154.855 7 8 160
1937046S14158 1937 8 SP EA NOT_NAMED 1937-02-17 03:00:00 TS -20.3698 155.026 main 493 492 _________PP___ -1 -20.3491 155.026 TC -20.3905 155.026 7 7 154
1937046S14158 1937 8 SP EA NOT_NAMED 1937-02-17 06:00:00 TS -20.6419 155.197 main 502 486 _________PP___ -1 -20.6350 155.191 TC -20.6487 155.202 7 6 146
1937046S14158 1937 8 SP EA NOT_NAMED 1937-02-17 09:00:00 TS -20.8702 155.384 main 486 480 _________PP___ -1 -20.8787 155.387 TC -20.8617 155.381 7 6 142
1937046S14158 1937 8 SP EA NOT_NAMED 1937-02-17 11:00:00 TS -21.0140 155.515 main 480 470 _________PO___ -1 -21.0280 155.530 TC -21.0000 155.500 7 6 140
1937046S14158 1937 8 SP EA NOT_NAMED 1937-02-17 12:00:00 TS -21.0859 155.578 main 475 461 _________PP___ -1 -21.1011 155.604 TC -21.0706 155.553 7 6 140
1937046S14158 1937 8 SP EA NOT_NAMED 1937-02-17 15:00:00 TS -21.2969 155.770 main 467 454 _________PP___ -1 -21.3234 155.833 TC -21.2704 155.708 7 6 141
1937046S14158 1937 8 SP EA NOT_NAMED 1937-02-17 18:00:00 TS -21.5263 155.967 main 460 440 _________PP___ -1 -21.5665 156.064 TC -21.4861 155.870 7 6 144
1937046S14158 1937 8 SP EA NOT_NAMED 1937-02-17 21:00:00 TS -21.8066 156.173 main 447 437 _________PP___ -1 -21.8517 156.290 TC -21.7615 156.056 7 7 148
1937046S14158 1937 8 SP EA NOT_NAMED 1937-02-17 23:00:00 TS -22.0378 156.316 main 437 429 _________PO___ -1 -22.0756 156.432 TC -22.0000 156.200 7 8 150
1937046S14158 1937 8 SP EA NOT_NAMED 1937-02-18 00:00:00 TS -22.1723 156.397 main 429 409 _________OP___ -1 -22.2000 156.500 TC 50 988 -22.1446 156.294 7 11 155
1937046S14158 1937 8 SP EA NOT_NAMED 1937-02-18 03:00:00 TS -22.6914 156.640 main 409 397 _________PP___ -1 -22.7345 156.673 TC -22.6484 156.607 7 12 158
1937046S14158 1937 8 SP EA NOT_NAMED 1937-02-18 06:00:00 TS -23.2823 156.886 main 401 392 _________PP___ -1 -23.3320 156.837 TC -23.2326 156.936 7 13 160
1937046S14158 1937 8 SP EA NOT_NAMED 1937-02-18 09:00:00 TS -23.9191 157.114 main 393 390 _________PP___ -1 -23.9723 156.991 TC -23.8659 157.237 7 14 163
1937046S14158 1937 8 SP EA NOT_NAMED 1937-02-18 11:00:00 TS -24.3564 157.244 main 389 389 _________PO___ -1 -24.4128 157.089 TC -24.3000 157.400 7 14 166
1937046S14158 1937 8 SP EA NOT_NAMED 1937-02-18 12:00:00 TS -24.5793 157.297 main 395 393 _________PP___ -1 -24.6349 157.136 TC -24.5236 157.458 7 14 170
1937046S14158 1937 8 SP EA NOT_NAMED 1937-02-18 15:00:00 TS -25.2589 157.427 main 403 403 _________PP___ -1 -25.2994 157.270 TC -25.2185 157.583 7 14 171
1937046S14158 1937 8 SP EA NOT_NAMED 1937-02-18 18:00:00 TS -25.9266 157.522 main 423 423 _________PP___ -1 -25.9453 157.393 TC -25.9079 157.652 7 13 173
1937046S14158 1937 8 SP EA NOT_NAMED 1937-02-18 21:00:00 TS -26.5454 157.594 main 437 419 _________PP___ -1 -26.5523 157.503 TC -26.5386 157.686 7 12 174
1937046S14158 1937 8 SP EA NOT_NAMED 1937-02-18 23:00:00 TS -26.9126 157.635 main 419 415 _________PO___ -1 -26.9253 157.569 TC -26.9000 157.700 7 11 173
1937046S14158 1937 8 SP EA NOT_NAMED 1937-02-19 00:00:00 TS -27.0741 157.656 main 421 410 _________OP___ -1 -27.1000 157.600 TC 50 988 -27.0481 157.713 7 9 174
1937046S14158 1937 8 SP EA NOT_NAMED 1937-02-19 03:00:00 TS -27.4946 157.711 main 410 404 _________PP___ -1 -27.5732 157.683 TC -27.4159 157.739 7 8 173
1937046S14158 1937 8 SP EA NOT_NAMED 1937-02-19 06:00:00 TS -27.8387 157.754 main 414 411 _________PP___ -1 -27.9770 157.753 TC -27.7004 157.756 7 6 174
1937046S14158 1937 8 SP EA NOT_NAMED 1937-02-19 09:00:00 TS -28.1319 157.794 main 411 411 _________PP___ -1 -28.3214 157.811 TC -27.9423 157.778 7 6 173
1937046S14158 1937 8 SP EA NOT_NAMED 1937-02-19 11:00:00 TS -28.3114 157.822 main 411 410 _________PO___ -1 -28.5229 157.845 TC -28.1000 157.800 7 5 170
1937046S14158 1937 8 SP EA NOT_NAMED 1937-02-19 12:00:00 TS -28.3958 157.838 main 410 410 _________PP___ -1 -28.6163 157.860 TC -28.1753 157.816 7 5 169
1937046S14158 1937 8 SP EA NOT_NAMED 1937-02-19 15:00:00 TS -28.6297 157.888 main 419 418 _________PP___ -1 -28.8717 157.902 TC -28.3877 157.874 7 5 169
1937046S14158 1937 8 SP EA NOT_NAMED 1937-02-19 18:00:00 TS -28.8592 157.942 main 418 418 _________PP___ -1 -29.0976 157.938 TC -28.6209 157.947 7 5 167
1937046S14158 1937 8 SP EA NOT_NAMED 1937-02-19 21:00:00 TS -29.0890 158.006 main 427 427 _________PP___ -1 -29.3037 157.970 TC -28.9280 158.034 7 5 166
1937046S14158 1937 8 SP EA NOT_NAMED 1937-02-19 23:00:00 TS -29.2784 158.063 main 438 438 _________PO___ -1 -29.4350 157.990 TC -29.2000 158.100 7 6 163
1937046S14158 1937 8 SP EA NOT_NAMED 1937-02-20 00:00:00 TS -29.3932 158.116 main 439 439 _________OP___ -1 -29.5000 158.000 TC 45 990 -29.3665 158.145 7 11 163
1937046S14158 1937 8 SP EA NOT_NAMED 1937-02-20 03:00:00 NR -29.9522 158.297 main 470 470 __________P___ -1 TC -29.9522 158.297 7 13 167
1937046S14158 1937 8 SP EA NOT_NAMED 1937-02-20 06:00:00 NR -30.6377 158.447 main 495 495 __________P___ -1 TC -30.6377 158.447 7 15 171
1937046S14158 1937 8 SP EA NOT_NAMED 1937-02-20 09:00:00 NR -31.3854 158.561 main 523 523 __________P___ -1 TC -31.3854 158.561 7 15 174
1937046S14158 1937 8 SP EA NOT_NAMED 1937-02-20 11:00:00 NR -31.9000 158.600 main 528 528 __________O___ -1 TC -31.9000 158.600 7 16 176
1937046S14158 1937 8 SP EA NOT_NAMED 1937-02-20 12:00:00 NR -32.1582 158.605 main 533 533 __________P___ -1 TC -32.1582 158.605 7 16 182
1937046S14158 1937 8 SP EA NOT_NAMED 1937-02-20 15:00:00 NR -32.9331 158.565 main 555 553 __________P___ -1 TC -32.9331 158.565 7 16 185
1937046S14158 1937 8 SP EA NOT_NAMED 1937-02-20 18:00:00 NR -33.7082 158.459 main 572 567 __________P___ -1 TC -33.7082 158.459 7 16 188
1937046S14158 1937 8 SP EA NOT_NAMED 1937-02-20 21:00:00 NR -34.4834 158.311 main 585 585 __________P___ -1 TC -34.4834 158.311 7 16 189
1937046S14158 1937 8 SP EA NOT_NAMED 1937-02-20 23:00:00 NR -35.0000 158.200 main 600 __________O___ -1 TC -35.0000 158.200 7 16 189

Digital Typhoon Data and Search

About IBTrACS Database

This database is a web-friendly format of International Best Track Archive for Climate Stewardship (IBTrACS), a global best track data archive curated by NOAA dating back to 1842.

Updated: 2021-10-08